sensor_id;sensor_type;location;lat;lon;timestamp;temperature;humidity
74901;DHT22;63461;51.416;6.758;2022-09-16T00:01:24;14.80;99.90
74901;DHT22;63461;51.416;6.758;2022-09-16T00:03:54;14.80;99.90
74901;DHT22;63461;51.416;6.758;2022-09-16T00:06:23;14.90;99.90
74901;DHT22;63461;51.416;6.758;2022-09-16T00:08:50;14.90;99.90
74901;DHT22;63461;51.416;6.758;2022-09-16T00:11:16;14.90;99.90
74901;DHT22;63461;51.416;6.758;2022-09-16T00:13:43;14.90;99.90
74901;DHT22;63461;51.416;6.758;2022-09-16T00:16:31;14.90;99.90
74901;DHT22;63461;51.416;6.758;2022-09-16T00:18:58;14.90;99.90
74901;DHT22;63461;51.416;6.758;2022-09-16T00:21:26;14.90;99.90
74901;DHT22;63461;51.416;6.758;2022-09-16T00:23:53;14.80;99.90
74901;DHT22;63461;51.416;6.758;2022-09-16T00:26:19;14.80;99.90
74901;DHT22;63461;51.416;6.758;2022-09-16T00:28:49;14.80;99.90
74901;DHT22;63461;51.416;6.758;2022-09-16T00:31:16;14.80;99.90
74901;DHT22;63461;51.416;6.758;2022-09-16T00:33:42;14.70;99.90
74901;DHT22;63461;51.416;6.758;2022-09-16T00:36:14;14.80;99.90
74901;DHT22;63461;51.416;6.758;2022-09-16T00:38:40;14.60;99.90
74901;DHT22;63461;51.416;6.758;2022-09-16T00:41:07;14.70;99.90
74901;DHT22;63461;51.416;6.758;2022-09-16T00:43:53;14.60;99.90
74901;DHT22;63461;51.416;6.758;2022-09-16T00:46:34;14.60;99.90
74901;DHT22;63461;51.416;6.758;2022-09-16T00:49:05;14.60;99.90
74901;DHT22;63461;51.416;6.758;2022-09-16T00:51:31;14.60;99.90
74901;DHT22;63461;51.416;6.758;2022-09-16T00:54:01;14.60;99.90
74901;DHT22;63461;51.416;6.758;2022-09-16T00:56:30;14.50;99.90
74901;DHT22;63461;51.416;6.758;2022-09-16T00:59:10;14.60;99.90
74901;DHT22;63461;51.416;6.758;2022-09-16T01:01:39;14.40;99.90
74901;DHT22;63461;51.416;6.758;2022-09-16T01:04:13;14.40;99.90
74901;DHT22;63461;51.416;6.758;2022-09-16T01:06:41;14.60;99.90
74901;DHT22;63461;51.416;6.758;2022-09-16T01:09:07;14.60;99.90
74901;DHT22;63461;51.416;6.758;2022-09-16T01:11:33;14.60;99.90
74901;DHT22;63461;51.416;6.758;2022-09-16T01:13:59;14.60;99.90
74901;DHT22;63461;51.416;6.758;2022-09-16T01:17:15;14.60;99.90
74901;DHT22;63461;51.416;6.758;2022-09-16T01:20:03;14.60;99.90
74901;DHT22;63461;51.416;6.758;2022-09-16T01:31:26;14.50;99.90
74901;DHT22;63461;51.416;6.758;2022-09-16T01:39:11;14.40;99.90
74901;DHT22;63461;51.416;6.758;2022-09-16T01:44:36;14.40;99.90
74901;DHT22;63461;51.416;6.758;2022-09-16T01:47:11;14.40;99.90
74901;DHT22;63461;51.416;6.758;2022-09-16T01:50:02;14.40;99.90
74901;DHT22;63461;51.416;6.758;2022-09-16T01:55:35;14.40;99.90
74901;DHT22;63461;51.416;6.758;2022-09-16T01:58:10;14.30;99.90
74901;DHT22;63461;51.416;6.758;2022-09-16T02:00:40;14.30;99.90
74901;DHT22;63461;51.416;6.758;2022-09-16T02:03:34;14.30;99.90
74901;DHT22;63461;51.416;6.758;2022-09-16T02:06:10;14.30;99.90
74901;DHT22;63461;51.416;6.758;2022-09-16T02:08:46;14.30;99.90
74901;DHT22;63461;51.416;6.758;2022-09-16T02:11:15;14.30;99.90
74901;DHT22;63461;51.416;6.758;2022-09-16T02:13:52;14.40;99.90
74901;DHT22;63461;51.416;6.758;2022-09-16T02:16:38;14.40;99.90
74901;DHT22;63461;51.416;6.758;2022-09-16T02:19:20;14.40;99.90
74901;DHT22;63461;51.416;6.758;2022-09-16T02:21:52;14.40;99.90
74901;DHT22;63461;51.416;6.758;2022-09-16T02:24:20;14.40;99.90
74901;DHT22;63461;51.416;6.758;2022-09-16T02:26:55;14.40;99.90
74901;DHT22;63461;51.416;6.758;2022-09-16T02:29:26;14.40;99.90
74901;DHT22;63461;51.416;6.758;2022-09-16T02:31:56;14.30;99.90
74901;DHT22;63461;51.416;6.758;2022-09-16T02:34:27;14.30;99.90
74901;DHT22;63461;51.416;6.758;2022-09-16T02:36:56;14.30;99.90
74901;DHT22;63461;51.416;6.758;2022-09-16T02:39:28;14.30;99.90
74901;DHT22;63461;51.416;6.758;2022-09-16T02:41:56;14.30;99.90
74901;DHT22;63461;51.416;6.758;2022-09-16T02:44:24;14.40;99.90
74901;DHT22;63461;51.416;6.758;2022-09-16T02:57:50;14.40;99.90
74901;DHT22;63461;51.416;6.758;2022-09-16T03:00:16;14.30;99.90
74901;DHT22;63461;51.416;6.758;2022-09-16T03:02:41;14.30;99.90
74901;DHT22;63461;51.416;6.758;2022-09-16T03:05:07;14.20;99.90
74901;DHT22;63461;51.416;6.758;2022-09-16T03:07:35;14.20;99.90
74901;DHT22;63461;51.416;6.758;2022-09-16T03:10:02;14.20;99.90
74901;DHT22;63461;51.416;6.758;2022-09-16T03:13:27;14.20;99.90
74901;DHT22;63461;51.416;6.758;2022-09-16T03:15:50;14.20;99.90
74901;DHT22;63461;51.416;6.758;2022-09-16T03:18:45;14.20;99.90
74901;DHT22;63461;51.416;6.758;2022-09-16T03:27:15;14.20;99.90
74901;DHT22;63461;51.416;6.758;2022-09-16T03:29:51;14.20;99.90
74901;DHT22;63461;51.416;6.758;2022-09-16T03:32:27;14.20;99.90
74901;DHT22;63461;51.416;6.758;2022-09-16T03:35:14;14.20;99.90
74901;DHT22;63461;51.416;6.758;2022-09-16T03:37:43;14.20;99.90
74901;DHT22;63461;51.416;6.758;2022-09-16T03:40:13;14.10;99.90
74901;DHT22;63461;51.416;6.758;2022-09-16T03:42:41;14.20;99.90
74901;DHT22;63461;51.416;6.758;2022-09-16T03:45:12;14.20;99.90
74901;DHT22;63461;51.416;6.758;2022-09-16T03:47:38;14.20;99.90
74901;DHT22;63461;51.416;6.758;2022-09-16T03:50:05;14.10;99.90
74901;DHT22;63461;51.416;6.758;2022-09-16T03:52:31;14.10;99.90
74901;DHT22;63461;51.416;6.758;2022-09-16T03:54:56;14.10;99.90
74901;DHT22;63461;51.416;6.758;2022-09-16T03:57:22;14.10;99.90
74901;DHT22;63461;51.416;6.758;2022-09-16T03:59:48;14.20;99.90
74901;DHT22;63461;51.416;6.758;2022-09-16T04:02:14;14.20;99.90
74901;DHT22;63461;51.416;6.758;2022-09-16T04:04:39;14.20;99.90
74901;DHT22;63461;51.416;6.758;2022-09-16T04:07:05;14.20;99.90
74901;DHT22;63461;51.416;6.758;2022-09-16T04:09:31;14.30;99.90
74901;DHT22;63461;51.416;6.758;2022-09-16T04:11:56;14.20;99.90
74901;DHT22;63461;51.416;6.758;2022-09-16T04:14:22;14.10;99.90
74901;DHT22;63461;51.416;6.758;2022-09-16T04:16:48;14.20;99.90
74901;DHT22;63461;51.416;6.758;2022-09-16T04:19:14;14.20;99.90
74901;DHT22;63461;51.416;6.758;2022-09-16T04:21:40;14.10;99.90
74901;DHT22;63461;51.416;6.758;2022-09-16T04:24:06;14.10;99.90
74901;DHT22;63461;51.416;6.758;2022-09-16T04:26:32;14.00;99.90
74901;DHT22;63461;51.416;6.758;2022-09-16T04:28:58;14.00;99.90
74901;DHT22;63461;51.416;6.758;2022-09-16T04:31:23;14.00;99.90
74901;DHT22;63461;51.416;6.758;2022-09-16T04:33:49;14.00;99.90
74901;DHT22;63461;51.416;6.758;2022-09-16T04:36:17;14.00;99.90
74901;DHT22;63461;51.416;6.758;2022-09-16T04:38:45;14.00;99.90
74901;DHT22;63461;51.416;6.758;2022-09-16T04:41:20;14.00;99.90
74901;DHT22;63461;51.416;6.758;2022-09-16T04:43:50;14.00;99.90
74901;DHT22;63461;51.416;6.758;2022-09-16T04:46:17;14.00;99.90
74901;DHT22;63461;51.416;6.758;2022-09-16T04:48:49;14.10;99.90
74901;DHT22;63461;51.416;6.758;2022-09-16T04:51:16;14.00;99.90
74901;DHT22;63461;51.416;6.758;2022-09-16T04:53:42;14.00;99.90
74901;DHT22;63461;51.416;6.758;2022-09-16T04:56:14;13.90;99.90
74901;DHT22;63461;51.416;6.758;2022-09-16T04:58:42;13.90;99.90
74901;DHT22;63461;51.416;6.758;2022-09-16T05:01:10;14.00;99.90
74901;DHT22;63461;51.416;6.758;2022-09-16T05:03:50;14.00;99.90
74901;DHT22;63461;51.416;6.758;2022-09-16T05:06:22;13.90;99.90
74901;DHT22;63461;51.416;6.758;2022-09-16T05:08:49;13.80;99.90
74901;DHT22;63461;51.416;6.758;2022-09-16T05:11:18;13.90;99.90
74901;DHT22;63461;51.416;6.758;2022-09-16T05:13:45;13.90;99.90
74901;DHT22;63461;51.416;6.758;2022-09-16T05:16:16;13.90;99.90
74901;DHT22;63461;51.416;6.758;2022-09-16T05:18:44;13.90;99.90
74901;DHT22;63461;51.416;6.758;2022-09-16T05:21:13;13.80;99.90
74901;DHT22;63461;51.416;6.758;2022-09-16T05:23:40;13.80;99.90
74901;DHT22;63461;51.416;6.758;2022-09-16T05:26:09;13.80;99.90
74901;DHT22;63461;51.416;6.758;2022-09-16T05:28:35;13.80;99.90
74901;DHT22;63461;51.416;6.758;2022-09-16T05:31:16;13.90;99.90
74901;DHT22;63461;51.416;6.758;2022-09-16T05:33:44;13.90;99.90
74901;DHT22;63461;51.416;6.758;2022-09-16T05:36:13;13.90;99.90
74901;DHT22;63461;51.416;6.758;2022-09-16T05:38:40;14.00;99.90
74901;DHT22;63461;51.416;6.758;2022-09-16T05:41:06;14.00;99.90
74901;DHT22;63461;51.416;6.758;2022-09-16T05:43:32;13.90;99.90
74901;DHT22;63461;51.416;6.758;2022-09-16T05:45:59;13.90;99.90
74901;DHT22;63461;51.416;6.758;2022-09-16T05:48:26;14.00;99.90
74901;DHT22;63461;51.416;6.758;2022-09-16T05:50:53;13.90;99.90
74901;DHT22;63461;51.416;6.758;2022-09-16T05:53:20;14.00;99.90
74901;DHT22;63461;51.416;6.758;2022-09-16T05:56:04;14.10;99.90
74901;DHT22;63461;51.416;6.758;2022-09-16T05:58:31;14.00;99.90
74901;DHT22;63461;51.416;6.758;2022-09-16T06:00:59;14.00;99.90
74901;DHT22;63461;51.416;6.758;2022-09-16T06:03:26;13.80;99.90
74901;DHT22;63461;51.416;6.758;2022-09-16T06:05:59;13.80;99.90
74901;DHT22;63461;51.416;6.758;2022-09-16T06:08:26;13.90;99.90
74901;DHT22;63461;51.416;6.758;2022-09-16T06:10:52;13.90;99.90
74901;DHT22;63461;51.416;6.758;2022-09-16T06:13:18;13.90;99.90
74901;DHT22;63461;51.416;6.758;2022-09-16T06:15:51;13.90;99.90
74901;DHT22;63461;51.416;6.758;2022-09-16T06:18:20;13.80;99.90
74901;DHT22;63461;51.416;6.758;2022-09-16T06:20:46;13.90;99.90
74901;DHT22;63461;51.416;6.758;2022-09-16T06:23:13;14.00;99.90
74901;DHT22;63461;51.416;6.758;2022-09-16T06:25:39;13.90;99.90
74901;DHT22;63461;51.416;6.758;2022-09-16T06:28:05;13.90;99.90
74901;DHT22;63461;51.416;6.758;2022-09-16T06:30:30;14.00;99.90
74901;DHT22;63461;51.416;6.758;2022-09-16T06:32:56;14.00;99.90
74901;DHT22;63461;51.416;6.758;2022-09-16T06:35:22;13.90;99.90
74901;DHT22;63461;51.416;6.758;2022-09-16T06:37:48;13.90;99.90
74901;DHT22;63461;51.416;6.758;2022-09-16T06:40:14;14.00;99.90
74901;DHT22;63461;51.416;6.758;2022-09-16T06:42:40;14.10;99.90
74901;DHT22;63461;51.416;6.758;2022-09-16T06:45:07;14.10;99.90
74901;DHT22;63461;51.416;6.758;2022-09-16T06:47:33;14.20;99.90
74901;DHT22;63461;51.416;6.758;2022-09-16T06:49:59;14.30;99.90
74901;DHT22;63461;51.416;6.758;2022-09-16T06:52:25;14.30;99.90
74901;DHT22;63461;51.416;6.758;2022-09-16T06:54:52;14.40;99.90
74901;DHT22;63461;51.416;6.758;2022-09-16T06:57:17;14.40;99.90
74901;DHT22;63461;51.416;6.758;2022-09-16T06:59:45;14.40;99.90
74901;DHT22;63461;51.416;6.758;2022-09-16T07:02:10;14.30;99.90
74901;DHT22;63461;51.416;6.758;2022-09-16T07:04:37;14.30;99.90
74901;DHT22;63461;51.416;6.758;2022-09-16T07:07:30;14.30;99.90
74901;DHT22;63461;51.416;6.758;2022-09-16T07:09:57;14.60;99.90
74901;DHT22;63461;51.416;6.758;2022-09-16T07:12:23;14.50;99.90
74901;DHT22;63461;51.416;6.758;2022-09-16T07:14:48;14.50;99.90
74901;DHT22;63461;51.416;6.758;2022-09-16T07:17:14;14.50;99.90
74901;DHT22;63461;51.416;6.758;2022-09-16T07:19:40;14.60;99.90
74901;DHT22;63461;51.416;6.758;2022-09-16T07:22:06;14.50;99.90
74901;DHT22;63461;51.416;6.758;2022-09-16T07:24:32;14.40;99.90
74901;DHT22;63461;51.416;6.758;2022-09-16T07:26:58;14.40;99.90
74901;DHT22;63461;51.416;6.758;2022-09-16T07:29:24;14.40;99.90
74901;DHT22;63461;51.416;6.758;2022-09-16T07:31:50;14.30;99.90
74901;DHT22;63461;51.416;6.758;2022-09-16T07:34:16;14.40;99.90
74901;DHT22;63461;51.416;6.758;2022-09-16T07:36:44;14.30;99.90
74901;DHT22;63461;51.416;6.758;2022-09-16T07:39:12;14.40;99.90
74901;DHT22;63461;51.416;6.758;2022-09-16T07:41:41;14.40;99.90
74901;DHT22;63461;51.416;6.758;2022-09-16T07:44:10;14.50;99.90
74901;DHT22;63461;51.416;6.758;2022-09-16T07:46:36;14.50;99.90
74901;DHT22;63461;51.416;6.758;2022-09-16T07:49:05;14.40;99.90
74901;DHT22;63461;51.416;6.758;2022-09-16T07:51:31;14.40;99.90
74901;DHT22;63461;51.416;6.758;2022-09-16T07:54:07;14.40;99.90
74901;DHT22;63461;51.416;6.758;2022-09-16T07:56:36;14.40;99.90
74901;DHT22;63461;51.416;6.758;2022-09-16T07:59:04;14.40;99.90
74901;DHT22;63461;51.416;6.758;2022-09-16T08:01:30;14.40;99.90
74901;DHT22;63461;51.416;6.758;2022-09-16T08:03:57;14.40;99.90
74901;DHT22;63461;51.416;6.758;2022-09-16T08:06:25;14.50;99.90
74901;DHT22;63461;51.416;6.758;2022-09-16T08:08:52;14.60;99.90
74901;DHT22;63461;51.416;6.758;2022-09-16T08:11:19;14.70;99.90
74901;DHT22;63461;51.416;6.758;2022-09-16T08:13:45;14.80;99.90
74901;DHT22;63461;51.416;6.758;2022-09-16T08:16:13;14.90;99.90
74901;DHT22;63461;51.416;6.758;2022-09-16T08:18:39;14.80;99.90
74901;DHT22;63461;51.416;6.758;2022-09-16T08:21:10;14.80;99.90
74901;DHT22;63461;51.416;6.758;2022-09-16T08:23:37;14.80;99.90
74901;DHT22;63461;51.416;6.758;2022-09-16T08:26:04;14.90;99.90
74901;DHT22;63461;51.416;6.758;2022-09-16T08:28:31;14.90;99.90
74901;DHT22;63461;51.416;6.758;2022-09-16T08:31:01;14.90;99.90
74901;DHT22;63461;51.416;6.758;2022-09-16T08:33:27;15.00;99.90
74901;DHT22;63461;51.416;6.758;2022-09-16T08:36:04;15.10;99.90
74901;DHT22;63461;51.416;6.758;2022-09-16T08:38:31;15.10;99.90
74901;DHT22;63461;51.416;6.758;2022-09-16T08:41:14;15.00;99.90
74901;DHT22;63461;51.416;6.758;2022-09-16T08:49:34;15.20;99.90
74901;DHT22;63461;51.416;6.758;2022-09-16T08:52:11;15.30;98.50
74901;DHT22;63461;51.416;6.758;2022-09-16T08:54:49;15.50;97.60
74901;DHT22;63461;51.416;6.758;2022-09-16T08:57:25;15.60;97.20
74901;DHT22;63461;51.416;6.758;2022-09-16T08:59:55;15.70;97.20
74901;DHT22;63461;51.416;6.758;2022-09-16T09:05:18;15.80;96.90
74901;DHT22;63461;51.416;6.758;2022-09-16T09:08:25;15.80;97.30
74901;DHT22;63461;51.416;6.758;2022-09-16T09:11:04;15.70;96.60
74901;DHT22;63461;51.416;6.758;2022-09-16T09:33:39;16.30;92.50
74901;DHT22;63461;51.416;6.758;2022-09-16T09:41:59;16.30;90.80
74901;DHT22;63461;51.416;6.758;2022-09-16T09:44:51;16.00;92.00
74901;DHT22;63461;51.416;6.758;2022-09-16T09:47:26;16.10;92.00
74901;DHT22;63461;51.416;6.758;2022-09-16T09:49:56;16.10;91.70
74901;DHT22;63461;51.416;6.758;2022-09-16T09:52:52;16.10;92.20
74901;DHT22;63461;51.416;6.758;2022-09-16T09:55:21;16.20;91.80
74901;DHT22;63461;51.416;6.758;2022-09-16T09:58:12;16.40;91.50
74901;DHT22;63461;51.416;6.758;2022-09-16T10:00:40;16.40;91.20
74901;DHT22;63461;51.416;6.758;2022-09-16T10:03:11;16.50;91.10
74901;DHT22;63461;51.416;6.758;2022-09-16T10:05:38;16.60;90.80
74901;DHT22;63461;51.416;6.758;2022-09-16T10:08:33;16.70;90.50
74901;DHT22;63461;51.416;6.758;2022-09-16T10:11:02;16.50;90.10
74901;DHT22;63461;51.416;6.758;2022-09-16T10:13:50;16.50;90.40
74901;DHT22;63461;51.416;6.758;2022-09-16T10:16:36;16.50;89.20
74901;DHT22;63461;51.416;6.758;2022-09-16T10:19:05;16.70;88.50
74901;DHT22;63461;51.416;6.758;2022-09-16T10:21:47;16.50;87.90
74901;DHT22;63461;51.416;6.758;2022-09-16T10:24:36;16.40;88.30
74901;DHT22;63461;51.416;6.758;2022-09-16T10:27:19;16.30;88.80
74901;DHT22;63461;51.416;6.758;2022-09-16T10:29:45;16.30;89.60
74901;DHT22;63461;51.416;6.758;2022-09-16T10:32:17;16.30;89.60
74901;DHT22;63461;51.416;6.758;2022-09-16T10:34:44;16.50;89.30
74901;DHT22;63461;51.416;6.758;2022-09-16T10:39:39;16.50;87.50
74901;DHT22;63461;51.416;6.758;2022-09-16T10:42:17;16.50;87.60
74901;DHT22;63461;51.416;6.758;2022-09-16T10:44:44;16.50;87.50
74901;DHT22;63461;51.416;6.758;2022-09-16T10:47:27;16.60;87.80
74901;DHT22;63461;51.416;6.758;2022-09-16T10:50:02;16.60;85.60
74901;DHT22;63461;51.416;6.758;2022-09-16T10:52:39;16.50;85.90
74901;DHT22;63461;51.416;6.758;2022-09-16T10:55:32;16.40;86.50
74901;DHT22;63461;51.416;6.758;2022-09-16T10:58:15;16.70;86.60
74901;DHT22;63461;51.416;6.758;2022-09-16T11:06:10;17.00;85.60
74901;DHT22;63461;51.416;6.758;2022-09-16T11:14:34;16.50;87.40
74901;DHT22;63461;51.416;6.758;2022-09-16T11:25:59;15.70;93.80
74901;DHT22;63461;51.416;6.758;2022-09-16T11:29:01;15.60;94.20
74901;DHT22;63461;51.416;6.758;2022-09-16T11:34:22;15.70;96.70
74901;DHT22;63461;51.416;6.758;2022-09-16T11:37:18;15.60;96.70
74901;DHT22;63461;51.416;6.758;2022-09-16T11:42:41;15.80;98.80
74901;DHT22;63461;51.416;6.758;2022-09-16T11:45:46;15.90;98.40
74901;DHT22;63461;51.416;6.758;2022-09-16T11:56:43;16.00;99.90
74901;DHT22;63461;51.416;6.758;2022-09-16T11:59:30;15.90;99.90
74901;DHT22;63461;51.416;6.758;2022-09-16T12:05:05;15.50;99.90
74901;DHT22;63461;51.416;6.758;2022-09-16T12:07:43;15.70;99.90
74901;DHT22;63461;51.416;6.758;2022-09-16T12:10:38;15.60;99.90
74901;DHT22;63461;51.416;6.758;2022-09-16T12:13:08;15.70;99.90
74901;DHT22;63461;51.416;6.758;2022-09-16T12:15:53;15.80;99.90
74901;DHT22;63461;51.416;6.758;2022-09-16T12:18:49;15.90;99.90
74901;DHT22;63461;51.416;6.758;2022-09-16T12:21:26;15.90;99.90
74901;DHT22;63461;51.416;6.758;2022-09-16T12:24:05;16.00;98.80
74901;DHT22;63461;51.416;6.758;2022-09-16T12:26:46;16.20;96.50
74901;DHT22;63461;51.416;6.758;2022-09-16T12:29:17;16.20;95.80
74901;DHT22;63461;51.416;6.758;2022-09-16T12:31:51;16.20;96.80
74901;DHT22;63461;51.416;6.758;2022-09-16T12:34:38;16.50;96.50
74901;DHT22;63461;51.416;6.758;2022-09-16T12:39:36;16.30;93.90
74901;DHT22;63461;51.416;6.758;2022-09-16T12:56:13;15.70;96.20
74901;DHT22;63461;51.416;6.758;2022-09-16T13:01:43;15.70;96.40
74901;DHT22;63461;51.416;6.758;2022-09-16T13:04:21;15.80;95.80
74901;DHT22;63461;51.416;6.758;2022-09-16T13:06:50;15.80;95.60
74901;DHT22;63461;51.416;6.758;2022-09-16T13:09:27;16.10;95.00
74901;DHT22;63461;51.416;6.758;2022-09-16T13:12:02;16.30;95.20
74901;DHT22;63461;51.416;6.758;2022-09-16T13:14:45;16.50;94.70
74901;DHT22;63461;51.416;6.758;2022-09-16T13:17:12;16.40;94.80
74901;DHT22;63461;51.416;6.758;2022-09-16T13:19:50;16.40;95.00
74901;DHT22;63461;51.416;6.758;2022-09-16T13:22:25;16.30;94.60
74901;DHT22;63461;51.416;6.758;2022-09-16T13:25:21;16.40;94.80
74901;DHT22;63461;51.416;6.758;2022-09-16T13:27:59;16.20;95.00
74901;DHT22;63461;51.416;6.758;2022-09-16T13:30:30;16.10;97.00
74901;DHT22;63461;51.416;6.758;2022-09-16T13:35:39;15.90;99.30
74901;DHT22;63461;51.416;6.758;2022-09-16T13:40:58;15.50;99.90
74901;DHT22;63461;51.416;6.758;2022-09-16T13:46:06;15.50;99.90
74901;DHT22;63461;51.416;6.758;2022-09-16T13:48:46;15.40;99.90
74901;DHT22;63461;51.416;6.758;2022-09-16T13:51:19;15.40;99.90
74901;DHT22;63461;51.416;6.758;2022-09-16T13:53:50;15.30;99.90
74901;DHT22;63461;51.416;6.758;2022-09-16T13:56:39;15.20;99.90
74901;DHT22;63461;51.416;6.758;2022-09-16T14:02:16;15.10;99.90
74901;DHT22;63461;51.416;6.758;2022-09-16T14:10:47;15.10;99.90
74901;DHT22;63461;51.416;6.758;2022-09-16T14:13:19;15.00;99.90
74901;DHT22;63461;51.416;6.758;2022-09-16T14:15:54;15.10;99.90
74901;DHT22;63461;51.416;6.758;2022-09-16T14:18:23;15.10;99.90
74901;DHT22;63461;51.416;6.758;2022-09-16T14:21:00;15.10;99.90
74901;DHT22;63461;51.416;6.758;2022-09-16T14:23:27;15.10;99.60
74901;DHT22;63461;51.416;6.758;2022-09-16T14:25:53;15.10;99.60
74901;DHT22;63461;51.416;6.758;2022-09-16T14:28:26;15.20;99.80
74901;DHT22;63461;51.416;6.758;2022-09-16T14:31:19;15.20;98.60
74901;DHT22;63461;51.416;6.758;2022-09-16T14:33:56;15.10;97.10
74901;DHT22;63461;51.416;6.758;2022-09-16T14:36:30;15.20;96.40
74901;DHT22;63461;51.416;6.758;2022-09-16T14:39:00;15.30;96.80
74901;DHT22;63461;51.416;6.758;2022-09-16T14:41:44;15.20;95.90
74901;DHT22;63461;51.416;6.758;2022-09-16T14:44:20;15.30;96.60
74901;DHT22;63461;51.416;6.758;2022-09-16T14:49:17;15.30;96.10
74901;DHT22;63461;51.416;6.758;2022-09-16T14:51:47;15.20;95.50
74901;DHT22;63461;51.416;6.758;2022-09-16T14:54:19;15.30;96.50
74901;DHT22;63461;51.416;6.758;2022-09-16T14:59:33;15.40;97.00
74901;DHT22;63461;51.416;6.758;2022-09-16T15:02:45;15.50;96.60
74901;DHT22;63461;51.416;6.758;2022-09-16T15:07:53;15.40;95.70
74901;DHT22;63461;51.416;6.758;2022-09-16T15:10:27;15.40;95.90
74901;DHT22;63461;51.416;6.758;2022-09-16T15:12:56;15.40;96.00
74901;DHT22;63461;51.416;6.758;2022-09-16T15:15:28;15.50;96.30
74901;DHT22;63461;51.416;6.758;2022-09-16T15:18:20;15.40;95.40
74901;DHT22;63461;51.416;6.758;2022-09-16T15:21:17;15.40;96.20
74901;DHT22;63461;51.416;6.758;2022-09-16T15:23:46;15.50;95.80
74901;DHT22;63461;51.416;6.758;2022-09-16T15:26:16;15.50;95.10
74901;DHT22;63461;51.416;6.758;2022-09-16T15:28:54;15.50;95.20
74901;DHT22;63461;51.416;6.758;2022-09-16T15:31:37;15.50;94.40
74901;DHT22;63461;51.416;6.758;2022-09-16T15:34:22;15.50;93.90
74901;DHT22;63461;51.416;6.758;2022-09-16T15:36:58;15.50;94.00
74901;DHT22;63461;51.416;6.758;2022-09-16T15:39:37;15.40;94.20
74901;DHT22;63461;51.416;6.758;2022-09-16T15:42:16;15.40;94.60
74901;DHT22;63461;51.416;6.758;2022-09-16T15:50:11;15.20;95.70
74901;DHT22;63461;51.416;6.758;2022-09-16T15:58:18;15.10;97.10
74901;DHT22;63461;51.416;6.758;2022-09-16T16:03:51;15.10;97.80
74901;DHT22;63461;51.416;6.758;2022-09-16T16:06:19;15.20;98.30
74901;DHT22;63461;51.416;6.758;2022-09-16T16:08:48;15.10;97.50
74901;DHT22;63461;51.416;6.758;2022-09-16T16:11:19;15.10;97.20
74901;DHT22;63461;51.416;6.758;2022-09-16T16:13:46;15.20;96.90
74901;DHT22;63461;51.416;6.758;2022-09-16T16:16:13;15.20;96.00
74901;DHT22;63461;51.416;6.758;2022-09-16T16:18:42;15.10;95.70
74901;DHT22;63461;51.416;6.758;2022-09-16T16:21:11;15.10;95.80
74901;DHT22;63461;51.416;6.758;2022-09-16T16:23:37;15.10;95.50
74901;DHT22;63461;51.416;6.758;2022-09-16T16:26:06;15.10;95.80
74901;DHT22;63461;51.416;6.758;2022-09-16T16:28:32;15.10;95.60
74901;DHT22;63461;51.416;6.758;2022-09-16T16:31:16;15.10;95.20
74901;DHT22;63461;51.416;6.758;2022-09-16T16:33:46;15.10;95.30
74901;DHT22;63461;51.416;6.758;2022-09-16T16:36:14;15.10;95.00
74901;DHT22;63461;51.416;6.758;2022-09-16T16:38:40;15.20;94.70
74901;DHT22;63461;51.416;6.758;2022-09-16T16:41:07;15.20;94.80
74901;DHT22;63461;51.416;6.758;2022-09-16T16:43:33;15.30;94.90
74901;DHT22;63461;51.416;6.758;2022-09-16T16:45:59;15.30;94.80
74901;DHT22;63461;51.416;6.758;2022-09-16T16:48:26;15.30;95.00
74901;DHT22;63461;51.416;6.758;2022-09-16T16:50:54;15.20;95.40
74901;DHT22;63461;51.416;6.758;2022-09-16T16:53:20;15.20;95.80
74901;DHT22;63461;51.416;6.758;2022-09-16T16:55:46;15.20;96.30
74901;DHT22;63461;51.416;6.758;2022-09-16T16:58:12;15.00;96.80
74901;DHT22;63461;51.416;6.758;2022-09-16T17:00:38;15.00;97.40
74901;DHT22;63461;51.416;6.758;2022-09-16T17:03:04;14.90;98.10
74901;DHT22;63461;51.416;6.758;2022-09-16T17:05:30;15.00;98.30
74901;DHT22;63461;51.416;6.758;2022-09-16T17:08:14;15.00;98.80
74901;DHT22;63461;51.416;6.758;2022-09-16T17:11:11;15.00;98.90
74901;DHT22;63461;51.416;6.758;2022-09-16T17:13:58;14.90;98.80
74901;DHT22;63461;51.416;6.758;2022-09-16T17:16:43;14.90;98.90
74901;DHT22;63461;51.416;6.758;2022-09-16T17:19:30;14.80;99.30
74901;DHT22;63461;51.416;6.758;2022-09-16T17:22:15;14.80;99.00
74901;DHT22;63461;51.416;6.758;2022-09-16T17:24:59;14.70;99.20
74901;DHT22;63461;51.416;6.758;2022-09-16T17:27:44;14.70;99.40
74901;DHT22;63461;51.416;6.758;2022-09-16T17:30:28;14.70;99.40
74901;DHT22;63461;51.416;6.758;2022-09-16T17:33:12;14.60;99.20
74901;DHT22;63461;51.416;6.758;2022-09-16T17:36:01;14.60;99.60
74901;DHT22;63461;51.416;6.758;2022-09-16T17:38:47;14.50;99.90
74901;DHT22;63461;51.416;6.758;2022-09-16T17:41:32;14.50;99.90
74901;DHT22;63461;51.416;6.758;2022-09-16T17:44:18;14.50;99.90
74901;DHT22;63461;51.416;6.758;2022-09-16T17:47:02;14.40;99.90
74901;DHT22;63461;51.416;6.758;2022-09-16T17:49:47;14.30;99.90
74901;DHT22;63461;51.416;6.758;2022-09-16T17:52:32;14.30;99.90
74901;DHT22;63461;51.416;6.758;2022-09-16T17:55:17;14.20;99.90
74901;DHT22;63461;51.416;6.758;2022-09-16T17:58:02;14.20;99.90
74901;DHT22;63461;51.416;6.758;2022-09-16T18:00:46;14.20;99.90
74901;DHT22;63461;51.416;6.758;2022-09-16T18:03:30;14.10;99.90
74901;DHT22;63461;51.416;6.758;2022-09-16T18:06:23;14.20;99.90
74901;DHT22;63461;51.416;6.758;2022-09-16T18:09:08;14.10;99.90
74901;DHT22;63461;51.416;6.758;2022-09-16T18:11:52;14.00;99.90
74901;DHT22;63461;51.416;6.758;2022-09-16T18:14:37;14.10;99.90
74901;DHT22;63461;51.416;6.758;2022-09-16T18:17:21;14.10;99.90
74901;DHT22;63461;51.416;6.758;2022-09-16T18:20:06;14.00;99.90
74901;DHT22;63461;51.416;6.758;2022-09-16T18:22:50;14.00;99.90
74901;DHT22;63461;51.416;6.758;2022-09-16T18:25:37;13.90;99.90
74901;DHT22;63461;51.416;6.758;2022-09-16T18:28:22;13.90;99.90
74901;DHT22;63461;51.416;6.758;2022-09-16T18:31:09;13.90;99.90
74901;DHT22;63461;51.416;6.758;2022-09-16T18:33:54;13.90;99.90
74901;DHT22;63461;51.416;6.758;2022-09-16T18:36:39;13.80;99.90
74901;DHT22;63461;51.416;6.758;2022-09-16T18:39:23;13.80;99.90
74901;DHT22;63461;51.416;6.758;2022-09-16T18:42:08;13.80;99.90
74901;DHT22;63461;51.416;6.758;2022-09-16T18:44:52;13.70;99.90
74901;DHT22;63461;51.416;6.758;2022-09-16T18:47:37;13.80;99.90
74901;DHT22;63461;51.416;6.758;2022-09-16T18:50:22;13.70;99.90
74901;DHT22;63461;51.416;6.758;2022-09-16T18:53:06;13.70;99.90
74901;DHT22;63461;51.416;6.758;2022-09-16T18:55:54;13.80;99.90
74901;DHT22;63461;51.416;6.758;2022-09-16T18:58:40;13.70;99.90
74901;DHT22;63461;51.416;6.758;2022-09-16T19:01:29;13.60;99.90